Time;durP1;ratioP1;P1;durP2;ratioP2;P2;SDS_P1;SDS_P2;PMS_P1;PMS_P2;Temp;Humidity;BMP_temperature;BMP_pressure;BME280_temperature;BME280_humidity;BME280_pressure;Samples;Min_cycle;Max_cycle;Signal;HPM_P1;HPM_P2
2023/11/30 00:01:43;;;;;;;4.13;2.40;;;11.20;92.30;;;;;;5053496;28;20056;-44
2023/11/30 00:04:09;;;;;;;6.88;2.97;;;11.20;92.30;;;;;;5052214;28;20021;-44
2023/11/30 00:06:39;;;;;;;5.22;2.63;;;11.20;92.40;;;;;;5051523;28;20429;-44
2023/11/30 00:09:04;;;;;;;4.97;2.70;;;11.20;92.40;;;;;;5051802;28;20024;-45
2023/11/30 00:11:30;;;;;;;4.22;2.20;;;11.10;92.40;;;;;;5050943;28;20017;-45
2023/11/30 00:13:56;;;;;;;4.25;2.60;;;11.10;92.40;;;;;;5052228;28;20048;-45
2023/11/30 00:16:21;;;;;;;4.95;2.47;;;11.10;92.40;;;;;;5052117;28;20497;-45
2023/11/30 00:18:47;;;;;;;4.95;2.40;;;11.10;92.40;;;;;;5052079;28;20036;-45
2023/11/30 00:21:13;;;;;;;3.90;2.10;;;11.10;92.50;;;;;;5052023;28;20036;-46
2023/11/30 00:23:38;;;;;;;4.82;2.40;;;11.10;92.50;;;;;;5051899;28;20383;-45
2023/11/30 00:26:05;;;;;;;4.90;2.70;;;11.10;92.50;;;;;;5051993;28;20118;-45
2023/11/30 00:28:30;;;;;;;5.22;2.70;;;11.10;92.50;;;;;;5052061;28;20017;-44
2023/11/30 00:30:56;;;;;;;5.90;2.35;;;11.10;92.50;;;;;;5051858;28;20029;-44
2023/11/30 00:33:21;;;;;;;5.18;2.28;;;11.10;92.50;;;;;;5051961;28;20028;-45
2023/11/30 00:35:47;;;;;;;5.88;2.60;;;11.00;92.90;;;;;;5051731;28;20020;-45
2023/11/30 00:38:13;;;;;;;5.18;2.80;;;11.00;92.50;;;;;;5051515;28;20364;-44
2023/11/30 00:40:39;;;;;;;4.13;2.50;;;11.00;92.50;;;;;;5051684;28;20036;-44
2023/11/30 00:43:05;;;;;;;4.63;2.50;;;11.00;92.50;;;;;;5051825;28;20040;-45
2023/11/30 00:45:31;;;;;;;3.63;2.28;;;11.00;92.60;;;;;;5051553;28;20025;-46
2023/11/30 00:47:56;;;;;;;3.83;2.28;;;11.00;92.60;;;;;;5051528;28;20025;-45
2023/11/30 00:50:22;;;;;;;5.10;2.47;;;11.00;92.60;;;;;;5051754;28;20028;-45
2023/11/30 00:52:48;;;;;;;4.10;2.40;;;11.00;92.60;;;;;;5051371;28;20032;-45
2023/11/30 00:55:13;;;;;;;4.35;2.10;;;11.00;92.60;;;;;;5052397;28;20036;-45
2023/11/30 00:57:39;;;;;;;4.85;2.60;;;11.00;92.60;;;;;;5052259;28;20454;-44
2023/11/30 01:00:08;;;;;;;3.47;2.22;;;11.00;92.60;;;;;;5054007;28;20025;-44
2023/11/30 01:02:34;;;;;;;3.45;2.10;;;10.90;92.60;;;;;;5051340;28;20024;-45
2023/11/30 01:05:00;;;;;;;3.78;2.28;;;10.90;92.60;;;;;;5051351;28;20021;-45
2023/11/30 01:07:25;;;;;;;4.90;2.30;;;10.90;92.60;;;;;;5049683;28;20029;-44
2023/11/30 01:09:51;;;;;;;5.90;2.45;;;10.90;92.70;;;;;;5051255;28;20047;-45
2023/11/30 01:12:17;;;;;;;2.63;1.90;;;10.90;92.60;;;;;;5051309;28;20068;-44
2023/11/30 01:14:42;;;;;;;5.85;2.60;;;10.90;92.70;;;;;;5051186;28;20040;-44
2023/11/30 01:17:08;;;;;;;4.03;1.90;;;10.90;92.70;;;;;;5052493;28;20033;-45
2023/11/30 01:19:34;;;;;;;2.83;1.75;;;10.90;92.70;;;;;;5051142;28;20479;-44
2023/11/30 01:21:59;;;;;;;2.72;1.95;;;10.90;92.70;;;;;;5050832;28;20130;-45
2023/11/30 01:24:25;;;;;;;6.13;2.22;;;10.90;92.70;;;;;;5051171;28;20545;-45
2023/11/30 01:26:50;;;;;;;3.10;2.00;;;10.90;92.70;;;;;;5051244;28;20471;-45
2023/11/30 01:29:16;;;;;;;2.85;2.03;;;10.90;92.70;;;;;;5049680;28;20017;-45
2023/11/30 01:31:42;;;;;;;3.60;2.00;;;10.90;92.70;;;;;;5051581;28;20099;-44
2023/11/30 01:34:08;;;;;;;3.33;2.10;;;10.90;92.70;;;;;;5052824;28;20021;-45
2023/11/30 01:36:34;;;;;;;2.72;1.70;;;10.80;93.00;;;;;;5051676;28;20021;-44
2023/11/30 01:39:00;;;;;;;3.05;2.15;;;10.90;92.70;;;;;;5050843;28;20551;-45
2023/11/30 01:41:26;;;;;;;2.72;1.73;;;10.80;92.70;;;;;;5051033;28;20107;-45
2023/11/30 01:43:52;;;;;;;4.38;2.15;;;10.80;92.70;;;;;;5050932;28;20429;-45
2023/11/30 01:46:19;;;;;;;3.45;1.80;;;10.80;92.70;;;;;;5050905;28;20025;-45
2023/11/30 01:48:46;;;;;;;3.75;1.92;;;10.80;92.70;;;;;;5050820;28;20261;-45
2023/11/30 01:51:13;;;;;;;3.00;1.90;;;10.80;92.70;;;;;;5050691;28;20533;-45
2023/11/30 01:53:40;;;;;;;4.57;2.17;;;10.80;92.70;;;;;;5051025;28;20087;-45
2023/11/30 01:56:09;;;;;;;2.65;1.70;;;10.80;92.70;;;;;;5050983;28;20021;-45
2023/11/30 01:58:36;;;;;;;3.30;1.90;;;10.80;92.70;;;;;;5050753;28;20021;-45
2023/11/30 02:01:01;;;;;;;3.33;1.73;;;10.80;92.70;;;;;;5050768;28;20029;-44
2023/11/30 02:03:29;;;;;;;3.40;2.00;;;10.80;92.80;;;;;;5050691;28;20040;-44
2023/11/30 02:05:54;;;;;;;4.30;1.90;;;10.80;92.80;;;;;;5050616;28;20475;-44
2023/11/30 02:08:20;;;;;;;2.65;1.75;;;10.80;92.70;;;;;;5050870;28;20075;-44
2023/11/30 02:10:46;;;;;;;3.67;1.83;;;10.80;92.80;;;;;;5050674;28;20045;-44
2023/11/30 02:13:11;;;;;;;2.63;1.40;;;10.80;92.70;;;;;;5050728;28;20513;-44
2023/11/30 02:15:37;;;;;;;2.63;1.70;;;10.70;92.70;;;;;;5050637;28;20082;-44
2023/11/30 02:18:02;;;;;;;2.50;1.60;;;10.70;92.80;;;;;;5050499;28;20025;-44
2023/11/30 02:20:28;;;;;;;2.38;1.55;;;10.70;92.80;;;;;;5050546;28;20403;-44
2023/11/30 02:22:54;;;;;;;2.60;1.60;;;10.70;92.80;;;;;;5050423;28;20060;-44
2023/11/30 02:25:19;;;;;;;3.35;1.88;;;10.80;92.80;;;;;;5050541;28;20100;-44
2023/11/30 02:27:45;;;;;;;3.08;2.00;;;10.70;92.80;;;;;;5050662;28;20032;-44
2023/11/30 02:30:12;;;;;;;2.83;1.73;;;10.70;92.80;;;;;;5052085;28;20498;-44
2023/11/30 02:32:37;;;;;;;3.10;1.95;;;10.70;92.80;;;;;;5054202;28;20116;-44
2023/11/30 02:35:04;;;;;;;3.25;2.00;;;10.70;92.80;;;;;;5054569;28;20121;-44
2023/11/30 02:37:30;;;;;;;5.00;1.67;;;10.70;92.80;;;;;;5054068;28;20052;-44
2023/11/30 02:39:55;;;;;;;2.75;1.55;;;10.70;92.80;;;;;;5054014;28;20118;-44
2023/11/30 02:42:21;;;;;;;2.55;1.58;;;10.70;92.80;;;;;;5054254;28;20036;-44
2023/11/30 02:44:47;;;;;;;3.95;1.85;;;10.70;92.80;;;;;;5052568;28;20070;-44
2023/11/30 02:47:13;;;;;;;2.90;1.45;;;10.70;92.80;;;;;;5053746;28;20040;-44
2023/11/30 02:49:38;;;;;;;2.67;1.83;;;10.70;92.80;;;;;;5053623;28;20025;-44
2023/11/30 02:52:04;;;;;;;3.13;1.80;;;10.70;92.80;;;;;;5053863;28;20394;-44
2023/11/30 02:54:32;;;;;;;2.72;1.60;;;10.60;92.80;;;;;;5052536;28;20025;-44
2023/11/30 02:56:58;;;;;;;2.88;1.90;;;10.70;92.80;;;;;;5053290;28;20471;-43
2023/11/30 02:59:24;;;;;;;2.08;1.33;;;10.70;93.10;;;;;;5053571;28;20029;-44
2023/11/30 03:01:50;;;;;;;3.05;1.63;;;10.70;92.80;;;;;;5054562;28;20024;-44
2023/11/30 03:04:16;;;;;;;2.58;1.55;;;10.70;92.80;;;;;;5053537;28;20096;-45
2023/11/30 03:06:42;;;;;;;2.60;1.65;;;10.70;92.80;;;;;;5053548;28;20376;-45
2023/11/30 03:09:08;;;;;;;2.65;1.73;;;10.60;92.80;;;;;;5053853;28;20025;-45
2023/11/30 03:11:35;;;;;;;3.65;2.00;;;10.60;92.80;;;;;;5053877;28;20104;-44
2023/11/30 03:14:01;;;;;;;2.85;1.77;;;10.60;92.80;;;;;;5053823;28;20029;-45
2023/11/30 03:16:27;;;;;;;3.42;1.63;;;10.60;92.80;;;;;;5054533;28;20389;-43
2023/11/30 03:18:54;;;;;;;2.50;1.38;;;10.60;92.80;;;;;;5053113;28;20037;-45
2023/11/30 03:21:20;;;;;;;2.38;1.65;;;10.60;92.80;;;;;;5053183;28;20505;-45
2023/11/30 03:23:46;;;;;;;3.85;1.70;;;10.60;92.80;;;;;;5053217;28;20052;-45
2023/11/30 03:26:16;;;;;;;3.22;1.67;;;10.60;92.80;;;;;;5052945;28;20021;-44
2023/11/30 03:28:43;;;;;;;3.17;1.80;;;10.60;92.80;;;;;;5053506;28;20033;-44
2023/11/30 03:31:09;;;;;;;2.42;1.50;;;10.60;92.80;;;;;;5053090;28;20029;-44
2023/11/30 03:33:34;;;;;;;2.85;1.50;;;10.60;92.80;;;;;;5053554;28;20081;-44
2023/11/30 03:36:00;;;;;;;2.85;1.52;;;10.60;92.80;;;;;;5052943;28;20078;-45
2023/11/30 03:38:26;;;;;;;2.42;1.45;;;10.60;92.80;;;;;;5053319;28;20040;-45
2023/11/30 03:40:51;;;;;;;2.70;1.60;;;10.60;92.90;;;;;;5053507;28;20029;-44
2023/11/30 03:43:17;;;;;;;3.03;1.73;;;10.60;92.80;;;;;;5052842;28;20104;-44
2023/11/30 03:45:43;;;;;;;3.25;1.98;;;10.60;92.80;;;;;;5052921;28;20025;-44
2023/11/30 03:48:08;;;;;;;3.15;1.48;;;10.60;92.80;;;;;;5052602;28;20036;-45
2023/11/30 03:50:34;;;;;;;5.18;2.30;;;10.60;92.80;;;;;;5052956;28;20025;-46
2023/11/30 03:53:00;;;;;;;10.23;4.20;;;10.60;92.90;;;;;;5053538;28;20037;-45
2023/11/30 03:55:26;;;;;;;6.53;2.67;;;10.60;92.90;;;;;;5052604;28;20403;-44
2023/11/30 03:57:52;;;;;;;6.40;2.78;;;10.60;92.80;;;;;;5052452;28;20044;-45
2023/11/30 04:00:18;;;;;;;6.38;2.92;;;10.60;92.90;;;;;;5053156;28;20017;-45
2023/11/30 04:02:44;;;;;;;6.13;2.75;;;10.50;92.80;;;;;;5053076;28;20455;-44
2023/11/30 04:05:13;;;;;;;5.93;2.50;;;10.60;92.90;;;;;;5052977;28;20100;-44
2023/11/30 04:07:39;;;;;;;4.18;2.38;;;10.60;92.90;;;;;;5052719;28;20031;-44
2023/11/30 04:10:10;;;;;;;5.82;2.40;;;10.50;92.80;;;;;;5052260;28;20492;-44
2023/11/30 04:12:35;;;;;;;4.85;2.30;;;10.60;92.90;;;;;;5052369;28;20086;-44
2023/11/30 04:15:01;;;;;;;6.10;2.65;;;10.50;92.90;;;;;;5052262;28;20029;-45
2023/11/30 04:17:26;;;;;;;5.85;2.72;;;10.50;92.90;;;;;;5052203;28;20033;-44
2023/11/30 04:19:52;;;;;;;5.97;2.40;;;10.50;92.90;;;;;;5052066;28;20486;-45
2023/11/30 04:22:18;;;;;;;5.78;2.42;;;10.50;92.90;;;;;;5052415;28;20032;-45
2023/11/30 04:24:44;;;;;;;3.70;2.33;;;10.50;92.90;;;;;;5053440;28;20430;-44
2023/11/30 04:27:10;;;;;;;4.30;2.05;;;10.50;92.90;;;;;;5052677;28;20021;-44
2023/11/30 04:29:36;;;;;;;6.03;2.58;;;10.50;92.90;;;;;;5052120;28;20025;-44
2023/11/30 04:32:02;;;;;;;4.68;2.20;;;10.50;92.90;;;;;;5051985;28;20028;-45
2023/11/30 04:34:29;;;;;;;3.60;2.05;;;10.50;92.90;;;;;;5051845;28;20024;-44
2023/11/30 04:36:54;;;;;;;4.38;2.00;;;10.50;92.90;;;;;;5051704;28;20028;-44
2023/11/30 04:39:23;;;;;;;4.70;2.13;;;10.50;92.90;;;;;;5051755;28;20025;-44
2023/11/30 04:41:50;;;;;;;4.22;2.20;;;10.50;93.00;;;;;;5051701;28;20032;-45
2023/11/30 04:44:16;;;;;;;3.55;2.08;;;10.60;93.10;;;;;;5051824;28;20025;-45
2023/11/30 04:46:41;;;;;;;3.88;2.05;;;10.60;93.10;;;;;;5051639;28;20025;-46
2023/11/30 04:49:07;;;;;;;3.92;1.80;;;10.60;93.10;;;;;;5051483;28;20048;-44
2023/11/30 04:51:33;;;;;;;3.63;2.00;;;10.70;93.00;;;;;;5052631;28;20029;-45
2023/11/30 04:53:58;;;;;;;4.68;2.08;;;10.70;92.90;;;;;;5051719;28;20104;-45
2023/11/30 04:56:24;;;;;;;4.43;2.00;;;10.80;92.90;;;;;;5052184;28;20471;-44
2023/11/30 04:58:50;;;;;;;3.47;2.15;;;10.90;92.80;;;;;;5051485;28;20080;-44
2023/11/30 05:01:15;;;;;;;3.10;1.70;;;10.90;92.80;;;;;;5052284;28;20025;-45
2023/11/30 05:03:41;;;;;;;3.75;1.85;;;10.90;92.70;;;;;;5051901;28;20383;-45
2023/11/30 05:06:08;;;;;;;3.90;2.10;;;11.00;92.60;;;;;;5051225;28;20045;-45
2023/11/30 05:08:34;;;;;;;3.45;1.80;;;11.00;92.50;;;;;;5052038;28;20029;-45
2023/11/30 05:10:59;;;;;;;3.47;2.08;;;11.10;92.50;;;;;;5051271;28;20029;-44
2023/11/30 05:13:25;;;;;;;3.45;1.90;;;11.10;92.40;;;;;;5051318;28;20382;-43
2023/11/30 05:15:50;;;;;;;5.10;2.55;;;11.10;92.30;;;;;;5052111;28;20044;-44
2023/11/30 05:18:17;;;;;;;4.20;2.25;;;11.10;92.30;;;;;;5052181;28;20029;-44
2023/11/30 05:20:42;;;;;;;3.10;2.03;;;11.10;92.30;;;;;;5051056;28;20024;-45
2023/11/30 05:23:08;;;;;;;4.00;2.22;;;11.10;92.20;;;;;;5051194;28;20036;-45
2023/11/30 05:25:34;;;;;;;3.83;1.92;;;11.10;92.50;;;;;;5051576;28;20075;-45
2023/11/30 05:28:00;;;;;;;4.93;2.53;;;11.10;92.20;;;;;;5052683;28;20092;-44
2023/11/30 05:30:26;;;;;;;3.70;2.10;;;11.10;92.10;;;;;;5052322;28;20025;-45
2023/11/30 05:32:51;;;;;;;3.42;1.98;;;11.10;92.10;;;;;;5051503;28;20033;-45
2023/11/30 05:35:17;;;;;;;2.63;1.95;;;11.10;92.10;;;;;;5050869;28;20028;-45
2023/11/30 05:37:43;;;;;;;3.72;2.03;;;11.10;92.20;;;;;;5050915;28;20108;-44
2023/11/30 05:40:09;;;;;;;3.95;2.22;;;11.10;92.20;;;;;;5051813;28;20036;-44
2023/11/30 05:42:35;;;;;;;3.22;1.80;;;11.10;92.20;;;;;;5051320;28;20021;-45
2023/11/30 05:45:00;;;;;;;4.00;2.03;;;11.10;92.20;;;;;;5050991;28;20029;-45
2023/11/30 05:47:26;;;;;;;4.15;2.10;;;11.10;92.20;;;;;;5051277;28;20104;-45
2023/11/30 05:49:54;;;;;;;3.42;2.00;;;11.10;92.20;;;;;;5050802;28;20487;-44
2023/11/30 05:52:20;;;;;;;4.20;2.40;;;11.10;92.20;;;;;;5051217;28;20443;-45
2023/11/30 05:54:46;;;;;;;3.65;2.10;;;11.10;92.20;;;;;;5050930;28;20067;-45
2023/11/30 05:57:11;;;;;;;5.80;2.20;;;11.00;92.20;;;;;;5051505;28;20037;-45
2023/11/30 05:59:37;;;;;;;3.58;2.10;;;11.00;92.20;;;;;;5050829;28;20029;-45
2023/11/30 06:02:04;;;;;;;3.15;1.95;;;11.00;92.20;;;;;;5051719;28;20091;-45
2023/11/30 06:04:31;;;;;;;3.20;1.95;;;11.00;92.20;;;;;;5051534;28;20104;-46
2023/11/30 06:06:57;;;;;;;4.57;2.10;;;11.00;92.20;;;;;;5054562;28;20494;-44
2023/11/30 06:09:23;;;;;;;3.42;2.35;;;11.00;92.20;;;;;;5054599;28;20033;-44
2023/11/30 06:11:51;;;;;;;2.97;2.20;;;11.00;92.20;;;;;;5055196;28;20032;-45
2023/11/30 06:14:16;;;;;;;4.10;2.55;;;11.00;92.20;;;;;;5055121;28;20059;-46
2023/11/30 06:16:42;;;;;;;3.80;2.10;;;11.00;92.20;;;;;;5054509;28;20191;-46
2023/11/30 06:19:09;;;;;;;5.30;2.13;;;11.00;92.20;;;;;;5054309;28;20021;-44
2023/11/30 06:21:35;;;;;;;3.17;2.30;;;10.90;92.20;;;;;;5054412;28;20029;-44
2023/11/30 06:24:00;;;;;;;3.65;2.10;;;10.90;92.20;;;;;;5054666;28;20394;-46
2023/11/30 06:26:26;;;;;;;3.55;2.03;;;10.90;92.30;;;;;;5054235;28;20028;-46
2023/11/30 06:28:52;;;;;;;2.72;2.15;;;10.90;92.30;;;;;;5054403;28;20418;-44
2023/11/30 06:31:17;;;;;;;3.97;1.88;;;10.90;92.30;;;;;;5054778;28;20364;-44
2023/11/30 06:33:43;;;;;;;3.30;2.20;;;10.90;92.30;;;;;;5054546;28;20483;-44
2023/11/30 06:36:09;;;;;;;4.57;2.47;;;10.90;92.30;;;;;;5055618;28;20483;-45
2023/11/30 06:38:34;;;;;;;6.45;2.92;;;10.90;92.30;;;;;;5054270;28;20040;-44
2023/11/30 06:41:00;;;;;;;4.07;2.55;;;10.90;92.30;;;;;;5054601;28;20029;-45
2023/11/30 06:43:26;;;;;;;3.80;2.42;;;10.80;92.30;;;;;;5054106;28;20032;-44
2023/11/30 06:45:52;;;;;;;3.55;2.55;;;10.80;92.40;;;;;;5054730;28;20104;-45
2023/11/30 06:48:18;;;;;;;4.75;2.90;;;10.80;92.40;;;;;;5054171;28;20028;-44
2023/11/30 06:50:44;;;;;;;4.25;2.70;;;10.80;92.40;;;;;;5053881;28;20379;-44
2023/11/30 06:53:09;;;;;;;3.53;2.53;;;10.80;92.40;;;;;;5054362;28;20028;-44
2023/11/30 06:55:35;;;;;;;4.72;2.38;;;10.80;92.40;;;;;;5054705;28;20056;-44
2023/11/30 06:58:01;;;;;;;5.00;3.10;;;10.80;92.40;;;;;;5054463;28;20040;-45
2023/11/30 07:00:26;;;;;;;4.47;2.85;;;10.80;92.40;;;;;;5052258;28;20021;-44
2023/11/30 07:02:54;;;;;;;4.55;3.20;;;10.90;92.80;;;;;;5054274;28;20047;-44
2023/11/30 07:05:20;;;;;;;5.20;2.72;;;10.90;92.40;;;;;;5053624;28;20044;-44
2023/11/30 07:07:46;;;;;;;5.40;2.80;;;10.90;92.40;;;;;;5053514;28;20475;-44
2023/11/30 07:10:12;;;;;;;4.75;2.80;;;10.90;92.30;;;;;;5053452;28;20025;-45
2023/11/30 07:12:38;;;;;;;4.18;2.60;;;11.00;92.40;;;;;;5053878;28;20044;-45
2023/11/30 07:15:06;;;;;;;3.85;2.47;;;11.00;92.30;;;;;;5053763;28;20021;-44
2023/11/30 07:17:31;;;;;;;3.88;2.63;;;11.00;92.30;;;;;;5053109;28;20031;-44
2023/11/30 07:19:57;;;;;;;3.65;2.40;;;11.00;92.20;;;;;;5053428;28;20025;-44
2023/11/30 07:22:24;;;;;;;4.95;3.00;;;11.10;92.20;;;;;;5037343;28;20057;-44
2023/11/30 07:24:50;;;;;;;5.20;2.80;;;11.10;92.20;;;;;;5033315;28;20024;-44
2023/11/30 07:27:20;;;;;;;4.07;2.80;;;11.10;92.10;;;;;;5033080;28;20534;-46
2023/11/30 07:29:46;;;;;;;3.75;2.50;;;11.10;92.10;;;;;;5033076;28;20040;-44
2023/11/30 07:32:15;;;;;;;4.70;2.92;;;11.20;92.10;;;;;;5034095;28;20179;-44
2023/11/30 07:34:41;;;;;;;4.32;2.63;;;11.20;92.00;;;;;;5033126;28;20025;-45
2023/11/30 07:37:06;;;;;;;4.63;2.65;;;11.20;92.00;;;;;;5033912;28;20025;-45
2023/11/30 07:39:32;;;;;;;7.22;3.05;;;11.30;92.00;;;;;;5033037;28;20383;-42
2023/11/30 07:41:58;;;;;;;7.45;3.35;;;11.30;91.90;;;;;;5032934;28;20022;-45
2023/11/30 07:44:25;;;;;;;6.47;3.53;;;11.30;91.90;;;;;;5032786;28;20535;-45
2023/11/30 07:46:50;;;;;;;5.32;3.00;;;11.30;91.90;;;;;;5032858;28;20018;-44
2023/11/30 07:49:16;;;;;;;6.13;3.15;;;11.30;91.80;;;;;;5032767;28;20028;-45
2023/11/30 07:51:41;;;;;;;6.35;3.60;;;11.40;91.90;;;;;;5032829;28;20105;-45
2023/11/30 07:54:08;;;;;;;5.40;2.97;;;11.40;91.80;;;;;;5033407;28;20037;-45
2023/11/30 07:56:33;;;;;;;4.93;2.65;;;11.40;91.80;;;;;;5032706;28;20049;-44
2023/11/30 07:59:00;;;;;;;5.13;2.95;;;11.40;91.80;;;;;;5032440;28;20387;-44
2023/11/30 08:01:27;;;;;;;5.82;3.15;;;11.40;91.80;;;;;;5033636;28;20033;-43
2023/11/30 08:03:53;;;;;;;5.80;3.38;;;11.40;91.80;;;;;;5032516;28;20116;-44
2023/11/30 08:06:19;;;;;;;4.47;2.67;;;11.50;91.80;;;;;;5032443;28;20028;-45
2023/11/30 08:08:45;;;;;;;4.95;2.72;;;11.40;92.00;;;;;;5032351;28;20021;-45
2023/11/30 08:11:12;;;;;;;4.68;3.00;;;11.50;91.70;;;;;;5032995;28;20022;-44
2023/11/30 08:13:37;;;;;;;5.40;2.88;;;11.50;91.70;;;;;;5032218;28;20029;-45
2023/11/30 08:16:04;;;;;;;4.75;2.67;;;11.50;91.70;;;;;;5032258;28;20189;-45
2023/11/30 08:18:31;;;;;;;5.13;3.10;;;11.60;91.60;;;;;;5033068;28;20030;-45
2023/11/30 08:20:59;;;;;;;4.13;2.63;;;11.60;91.60;;;;;;5032668;28;20395;-44
2023/11/30 08:23:25;;;;;;;5.75;2.90;;;11.60;91.60;;;;;;5032486;28;20026;-45
2023/11/30 08:25:50;;;;;;;5.53;2.95;;;11.60;91.60;;;;;;5032156;28;20049;-44
2023/11/30 08:28:16;;;;;;;4.03;2.78;;;11.70;91.50;;;;;;5031211;28;20056;-45
2023/11/30 08:30:42;;;;;;;5.97;2.47;;;11.70;91.50;;;;;;5032180;28;20097;-43
2023/11/30 08:33:09;;;;;;;4.50;2.53;;;11.70;91.40;;;;;;5032076;28;20069;-44
2023/11/30 08:35:34;;;;;;;4.78;2.85;;;11.80;91.40;;;;;;5031842;28;20029;-44
2023/11/30 08:38:00;;;;;;;4.43;2.63;;;11.80;91.40;;;;;;5032273;28;20026;-45
2023/11/30 08:40:25;;;;;;;5.53;3.00;;;11.80;91.30;;;;;;5032046;28;20033;-44
2023/11/30 08:42:51;;;;;;;5.53;2.67;;;11.80;91.30;;;;;;5031807;28;20484;-45
2023/11/30 08:45:18;;;;;;;4.88;2.95;;;11.90;91.30;;;;;;5031738;28;20021;-44
2023/11/30 08:47:43;;;;;;;5.22;2.90;;;11.90;91.20;;;;;;5031722;28;20084;-45
2023/11/30 08:50:09;;;;;;;5.38;3.25;;;11.90;91.20;;;;;;5032328;28;20021;-45
2023/11/30 08:52:35;;;;;;;4.70;3.00;;;12.00;91.20;;;;;;5031673;28;20033;-44
2023/11/30 08:55:01;;;;;;;4.45;2.85;;;12.00;91.10;;;;;;5031424;28;20087;-45
2023/11/30 08:57:26;;;;;;;5.65;3.08;;;12.10;91.10;;;;;;5032087;28;20511;-44
2023/11/30 08:59:52;;;;;;;4.07;2.65;;;12.10;91.10;;;;;;5032427;28;20052;-45
2023/11/30 09:02:19;;;;;;;4.63;2.55;;;12.10;91.00;;;;;;5031523;28;20022;-45
2023/11/30 09:04:45;;;;;;;4.82;3.03;;;12.10;91.00;;;;;;5031522;28;20021;-45
2023/11/30 09:07:10;;;;;;;4.05;2.67;;;12.20;90.90;;;;;;5031364;28;20040;-45
2023/11/30 09:09:36;;;;;;;5.38;2.97;;;12.20;90.90;;;;;;5031168;28;20360;-46
2023/11/30 09:12:02;;;;;;;4.85;3.30;;;12.20;90.90;;;;;;5031626;28;20079;-45
2023/11/30 09:14:32;;;;;;;5.22;3.35;;;12.30;90.90;;;;;;5031394;28;20021;-46
2023/11/30 09:16:59;;;;;;;4.03;2.85;;;12.30;90.80;;;;;;5031508;28;20025;-45
2023/11/30 09:19:25;;;;;;;5.68;3.25;;;12.30;90.80;;;;;;5031241;28;20026;-46
2023/11/30 09:21:50;;;;;;;4.97;3.10;;;12.30;90.80;;;;;;5031114;28;20022;-45
2023/11/30 09:24:21;;;;;;;6.20;3.42;;;12.40;90.70;;;;;;5031171;28;20029;-45
2023/11/30 09:26:53;;;;;;;6.05;3.67;;;12.40;90.70;;;;;;5031228;28;20459;-45
2023/11/30 09:29:18;;;;;;;5.82;3.55;;;12.50;90.70;;;;;;5031158;28;20029;-45
2023/11/30 09:31:45;;;;;;;5.85;3.53;;;12.50;90.70;;;;;;5031209;28;20079;-45
2023/11/30 09:34:14;;;;;;;4.50;3.45;;;12.50;90.60;;;;;;5031257;28;20029;-46
2023/11/30 09:36:40;;;;;;;6.55;3.60;;;12.60;90.60;;;;;;5030992;28;20075;-46
2023/11/30 09:39:09;;;;;;;4.95;3.08;;;12.60;90.60;;;;;;5032657;28;20029;-45
2023/11/30 09:41:38;;;;;;;4.80;3.50;;;12.60;90.50;;;;;;5035495;28;20021;-45
2023/11/30 09:44:04;;;;;;;5.68;3.63;;;12.70;90.50;;;;;;5035793;28;20538;-44
2023/11/30 09:46:33;;;;;;;6.00;3.63;;;12.70;90.50;;;;;;5036198;28;20049;-44
2023/11/30 09:48:59;;;;;;;5.00;3.60;;;12.70;90.50;;;;;;5034757;28;20029;-44
2023/11/30 09:51:28;;;;;;;5.03;3.65;;;12.70;90.40;;;;;;5035098;28;20033;-44
2023/11/30 09:53:55;;;;;;;4.55;3.40;;;12.70;90.40;;;;;;5035188;28;20399;-44
2023/11/30 09:56:21;;;;;;;5.50;3.50;;;12.80;90.30;;;;;;5035440;28;20025;-44
2023/11/30 09:58:47;;;;;;;5.85;3.42;;;12.80;90.30;;;;;;5034813;28;20021;-45
2023/11/30 10:01:13;;;;;;;6.03;3.53;;;12.80;90.30;;;;;;5034794;28;20098;-45
2023/11/30 10:03:39;;;;;;;5.00;3.40;;;12.90;90.30;;;;;;5035172;28;20104;-45
2023/11/30 10:06:05;;;;;;;4.93;3.70;;;12.80;90.20;;;;;;5034714;28;20502;-44
2023/11/30 10:08:30;;;;;;;6.50;3.40;;;12.80;90.20;;;;;;5035656;28;20506;-44
2023/11/30 10:10:56;;;;;;;6.63;3.72;;;12.90;90.30;;;;;;5034607;28;20064;-45
2023/11/30 10:13:22;;;;;;;5.38;3.60;;;12.90;90.20;;;;;;5034686;28;20064;-45
2023/11/30 10:15:47;;;;;;;5.45;3.53;;;12.90;90.20;;;;;;5034431;28;20025;-45
2023/11/30 10:18:13;;;;;;;5.05;3.55;;;12.90;90.10;;;;;;5035264;28;20029;-45
2023/11/30 10:20:39;;;;;;;6.40;4.05;;;12.90;90.10;;;;;;5035416;28;20041;-45
2023/11/30 10:23:12;;;;;;;4.95;3.28;;;12.90;90.10;;;;;;5034693;28;20033;-44
2023/11/30 10:25:40;;;;;;;5.60;4.03;;;13.00;90.10;;;;;;5034579;28;20017;-44
2023/11/30 10:28:09;;;;;;;5.38;3.60;;;13.00;90.00;;;;;;5034215;28;20148;-44
2023/11/30 10:30:40;;;;;;;5.15;3.67;;;13.00;90.00;;;;;;5035128;28;20384;-45
2023/11/30 10:33:13;;;;;;;5.30;3.90;;;13.10;90.00;;;;;;5034593;28;20172;-44
2023/11/30 10:35:48;;;;;;;6.80;3.70;;;13.10;90.30;;;;;;5034314;28;20376;-45
2023/11/30 10:38:28;;;;;;;5.20;3.42;;;13.10;89.90;;;;;;5034224;28;20046;-44
2023/11/30 10:41:08;;;;;;;5.75;3.67;;;13.10;89.90;;;;;;5034973;28;20376;-44
2023/11/30 10:43:37;;;;;;;6.45;3.60;;;13.10;89.80;;;;;;5035656;28;20617;-46
2023/11/30 10:46:07;;;;;;;6.05;3.83;;;13.20;89.80;;;;;;5034752;28;20025;-45
2023/11/30 10:48:36;;;;;;;5.95;3.60;;;13.20;89.70;;;;;;5034874;28;20088;-44
2023/11/30 10:51:03;;;;;;;5.97;3.63;;;13.20;89.70;;;;;;5033310;28;20026;-44
2023/11/30 10:54:00;;;;;;;5.88;4.03;;;13.20;89.60;;;;;;5034742;28;20064;-45
2023/11/30 10:56:27;;;;;;;5.25;3.30;;;13.20;89.60;;;;;;5033926;28;20057;-44
2023/11/30 10:58:53;;;;;;;5.30;3.67;;;13.20;89.50;;;;;;5034181;28;20394;-45
2023/11/30 11:01:19;;;;;;;5.55;3.65;;;13.20;89.50;;;;;;5033786;28;20495;-44
2023/11/30 11:03:48;;;;;;;5.53;3.67;;;13.20;89.40;;;;;;5033502;28;20033;-46
2023/11/30 11:06:17;;;;;;;5.90;3.88;;;13.30;89.50;;;;;;5033619;28;20034;-45
2023/11/30 11:09:08;;;;;;;7.13;3.60;;;13.30;89.40;;;;;;5033598;28;20026;-44
2023/11/30 11:11:38;;;;;;;5.85;3.92;;;13.30;89.40;;;;;;5034717;28;20387;-45
2023/11/30 11:14:04;;;;;;;5.80;3.38;;;13.30;89.30;;;;;;5034617;28;20034;-43
2023/11/30 11:16:40;;;;;;;5.75;3.90;;;13.30;89.30;;;;;;5034285;28;20522;-44
2023/11/30 11:19:08;;;;;;;8.73;3.75;;;13.30;89.40;;;;;;5034343;28;20037;-45
2023/11/30 11:21:39;;;;;;;4.65;3.50;;;13.40;89.40;;;;;;5034727;28;20037;-44
2023/11/30 11:24:06;;;;;;;4.10;3.08;;;13.40;89.30;;;;;;5033603;28;20026;-45
2023/11/30 11:26:46;;;;;;;5.97;3.33;;;13.40;89.30;;;;;;5033074;28;20045;-45
2023/11/30 11:29:13;;;;;;;4.75;3.53;;;13.40;89.20;;;;;;5033334;28;20026;-44
2023/11/30 11:31:44;;;;;;;5.50;3.53;;;13.40;89.20;;;;;;5033307;28;20022;-44
2023/11/30 11:34:10;;;;;;;4.70;3.03;;;13.40;89.10;;;;;;5033201;28;20475;-44
2023/11/30 11:36:39;;;;;;;5.03;3.15;;;13.40;89.10;;;;;;5033133;28;20032;-44
2023/11/30 11:39:06;;;;;;;5.32;3.22;;;13.40;89.00;;;;;;5033295;28;20037;-45
2023/11/30 11:41:32;;;;;;;5.20;3.10;;;13.40;89.00;;;;;;5033201;28;20502;-44
2023/11/30 11:43:58;;;;;;;4.90;3.03;;;13.50;89.10;;;;;;5033755;28;20025;-45
2023/11/30 11:46:23;;;;;;;4.85;3.20;;;13.50;89.00;;;;;;5031580;28;20483;-43
2023/11/30 11:48:49;;;;;;;5.65;3.50;;;13.50;89.00;;;;;;5033467;28;20029;-45
2023/11/30 11:51:14;;;;;;;4.53;3.03;;;13.50;89.00;;;;;;5032846;28;20026;-45
2023/11/30 11:53:41;;;;;;;4.07;2.63;;;13.50;89.00;;;;;;5032671;28;20041;-45
2023/11/30 11:56:10;;;;;;;5.60;3.35;;;13.50;89.00;;;;;;5032678;28;20037;-45
2023/11/30 11:58:41;;;;;;;4.43;2.80;;;13.50;88.90;;;;;;5032898;28;20136;-45
2023/11/30 12:01:07;;;;;;;4.43;2.80;;;13.50;88.90;;;;;;5033142;28;20029;-44
2023/11/30 12:03:43;;;;;;;3.20;2.28;;;13.50;88.80;;;;;;5032273;28;20036;-44
2023/11/30 12:06:09;;;;;;;2.95;2.30;;;13.60;88.80;;;;;;5033054;28;20029;-44
2023/11/30 12:08:35;;;;;;;4.22;2.60;;;13.60;88.80;;;;;;5033134;28;20479;-45
2023/11/30 12:11:01;;;;;;;4.72;2.95;;;13.60;88.80;;;;;;5033067;28;20534;-44
2023/11/30 12:13:27;;;;;;;3.60;2.38;;;13.60;88.70;;;;;;5031179;28;20025;-45
2023/11/30 12:15:55;;;;;;;4.00;2.80;;;13.60;88.70;;;;;;5032597;28;20057;-44
2023/11/30 12:18:21;;;;;;;4.90;2.42;;;13.60;88.70;;;;;;5032911;28;20026;-43
2023/11/30 12:20:47;;;;;;;3.67;2.33;;;13.60;88.70;;;;;;5032766;28;20032;-44
2023/11/30 12:23:13;;;;;;;3.83;2.28;;;13.60;88.70;;;;;;5032095;28;20133;-45
2023/11/30 12:25:39;;;;;;;3.95;2.40;;;13.60;88.60;;;;;;5033269;28;20029;-44
2023/11/30 12:28:06;;;;;;;5.53;2.30;;;13.70;88.30;;;;;;5033272;28;20025;-44
2023/11/30 12:30:32;;;;;;;4.28;2.42;;;13.70;88.00;;;;;;5032617;28;20025;-41
2023/11/30 12:32:58;;;;;;;3.55;2.47;;;13.70;88.00;;;;;;5032691;28;20025;-43
2023/11/30 12:35:24;;;;;;;4.20;2.67;;;13.70;88.00;;;;;;5031767;28;20030;-44
2023/11/30 12:37:50;;;;;;;3.60;2.17;;;13.70;88.00;;;;;;5032857;28;20104;-44
2023/11/30 12:40:16;;;;;;;4.88;3.00;;;13.70;88.00;;;;;;5031943;28;20156;-45
2023/11/30 12:42:42;;;;;;;4.10;2.25;;;13.70;88.00;;;;;;5032701;28;20025;-44
2023/11/30 12:45:08;;;;;;;4.43;2.33;;;13.70;88.00;;;;;;5033039;28;20025;-45